sensor_id;sensor_type;location;lat;lon;timestamp;pressure;altitude;pressure_sealevel;temperature;humidity
64713;BME280;51140;45.340;5.980;2024-02-16T00:01:14;98369.41;;;7.03;96.72
64713;BME280;51140;45.340;5.980;2024-02-16T00:03:39;98376.66;;;7.07;96.35
64713;BME280;51140;45.340;5.980;2024-02-16T00:06:05;98368.81;;;7.12;96.82
64713;BME280;51140;45.340;5.980;2024-02-16T00:08:31;98376.47;;;7.14;96.41
64713;BME280;51140;45.340;5.980;2024-02-16T00:10:59;98371.19;;;7.14;97.13
64713;BME280;51140;45.340;5.980;2024-02-16T00:13:25;98374.56;;;7.09;97.44
64713;BME280;51140;45.340;5.980;2024-02-16T00:15:50;98374.09;;;7.12;96.70
64713;BME280;51140;45.340;5.980;2024-02-16T00:18:15;98378.09;;;7.15;96.49
64713;BME280;51140;45.340;5.980;2024-02-16T00:20:41;98374.59;;;6.98;96.88
64713;BME280;51140;45.340;5.980;2024-02-16T00:23:06;98376.22;;;6.99;98.24
64713;BME280;51140;45.340;5.980;2024-02-16T00:25:31;98381.25;;;7.00;97.86
64713;BME280;51140;45.340;5.980;2024-02-16T00:27:57;98373.53;;;7.10;96.45
64713;BME280;51140;45.340;5.980;2024-02-16T00:30:22;98381.34;;;7.05;96.59
64713;BME280;51140;45.340;5.980;2024-02-16T00:32:48;98374.38;;;6.99;97.43
64713;BME280;51140;45.340;5.980;2024-02-16T00:35:15;98371.31;;;6.90;97.66
64713;BME280;51140;45.340;5.980;2024-02-16T00:37:41;98376.72;;;6.84;97.63
64713;BME280;51140;45.340;5.980;2024-02-16T00:40:07;98373.56;;;6.99;97.80
64713;BME280;51140;45.340;5.980;2024-02-16T00:42:33;98376.88;;;7.06;97.20
64713;BME280;51140;45.340;5.980;2024-02-16T00:44:59;98381.34;;;7.05;97.34
64713;BME280;51140;45.340;5.980;2024-02-16T00:47:28;98384.31;;;6.69;97.17
64713;BME280;51140;45.340;5.980;2024-02-16T00:49:54;98382.06;;;6.61;97.10
64713;BME280;51140;45.340;5.980;2024-02-16T00:52:19;98388.34;;;6.60;98.19
64713;BME280;51140;45.340;5.980;2024-02-16T00:54:45;98388.66;;;6.75;97.49
64713;BME280;51140;45.340;5.980;2024-02-16T00:57:12;98388.56;;;6.81;97.08
64713;BME280;51140;45.340;5.980;2024-02-16T00:59:39;98381.88;;;6.90;96.69
64713;BME280;51140;45.340;5.980;2024-02-16T01:02:05;98386.00;;;6.86;97.28
64713;BME280;51140;45.340;5.980;2024-02-16T01:04:30;98389.59;;;6.69;98.38
64713;BME280;51140;45.340;5.980;2024-02-16T01:06:55;98391.78;;;6.72;98.42
64713;BME280;51140;45.340;5.980;2024-02-16T01:09:21;98396.72;;;6.68;98.47
64713;BME280;51140;45.340;5.980;2024-02-16T01:11:46;98399.50;;;6.62;99.31
64713;BME280;51140;45.340;5.980;2024-02-16T01:14:14;98392.47;;;6.79;97.10
64713;BME280;51140;45.340;5.980;2024-02-16T01:16:39;98392.56;;;6.84;97.34
64713;BME280;51140;45.340;5.980;2024-02-16T01:19:05;98396.03;;;6.73;98.25
64713;BME280;51140;45.340;5.980;2024-02-16T01:21:32;98393.94;;;6.75;98.51
64713;BME280;51140;45.340;5.980;2024-02-16T01:23:57;98397.81;;;6.84;98.08
64713;BME280;51140;45.340;5.980;2024-02-16T01:26:24;98394.47;;;6.88;97.71
64713;BME280;51140;45.340;5.980;2024-02-16T01:28:50;98396.91;;;6.90;97.71
64713;BME280;51140;45.340;5.980;2024-02-16T01:31:15;98387.47;;;6.94;97.85
64713;BME280;51140;45.340;5.980;2024-02-16T01:33:40;98393.88;;;6.98;96.86
64713;BME280;51140;45.340;5.980;2024-02-16T01:36:06;98398.66;;;6.73;98.81
64713;BME280;51140;45.340;5.980;2024-02-16T01:38:31;98397.16;;;6.77;98.68
64713;BME280;51140;45.340;5.980;2024-02-16T01:40:57;98401.06;;;6.63;98.02
64713;BME280;51140;45.340;5.980;2024-02-16T01:43:22;98396.59;;;6.75;98.03
64713;BME280;51140;45.340;5.980;2024-02-16T01:45:48;98389.22;;;6.77;98.24
64713;BME280;51140;45.340;5.980;2024-02-16T01:48:16;98393.38;;;6.73;98.69
64713;BME280;51140;45.340;5.980;2024-02-16T01:50:45;98394.66;;;6.70;98.12
64713;BME280;51140;45.340;5.980;2024-02-16T01:53:14;98390.09;;;6.54;98.87
64713;BME280;51140;45.340;5.980;2024-02-16T01:55:42;98389.13;;;6.72;98.09
64713;BME280;51140;45.340;5.980;2024-02-16T01:58:08;98398.22;;;6.64;99.17
64713;BME280;51140;45.340;5.980;2024-02-16T02:00:33;98392.06;;;6.47;98.82
64713;BME280;51140;45.340;5.980;2024-02-16T02:02:59;98389.59;;;6.69;98.53
64713;BME280;51140;45.340;5.980;2024-02-16T02:05:24;98388.22;;;6.78;97.99
64713;BME280;51140;45.340;5.980;2024-02-16T02:07:49;98385.50;;;6.50;98.16
64713;BME280;51140;45.340;5.980;2024-02-16T02:10:15;98387.31;;;6.61;99.12
64713;BME280;51140;45.340;5.980;2024-02-16T02:12:42;98394.34;;;6.55;98.42
64713;BME280;51140;45.340;5.980;2024-02-16T02:15:09;98396.34;;;6.76;97.91
64713;BME280;51140;45.340;5.980;2024-02-16T02:17:35;98395.19;;;6.84;97.83
64713;BME280;51140;45.340;5.980;2024-02-16T02:20:01;98382.47;;;6.81;98.16
64713;BME280;51140;45.340;5.980;2024-02-16T02:22:27;98385.66;;;6.83;97.93
64713;BME280;51140;45.340;5.980;2024-02-16T02:24:53;98379.41;;;6.61;98.30
64713;BME280;51140;45.340;5.980;2024-02-16T02:27:21;98376.06;;;6.65;97.97
64713;BME280;51140;45.340;5.980;2024-02-16T02:29:46;98371.22;;;6.74;98.01
64713;BME280;51140;45.340;5.980;2024-02-16T02:32:12;98366.06;;;6.79;98.40
64713;BME280;51140;45.340;5.980;2024-02-16T02:34:38;98372.03;;;6.74;97.79
64713;BME280;51140;45.340;5.980;2024-02-16T02:37:03;98370.47;;;6.62;99.11
64713;BME280;51140;45.340;5.980;2024-02-16T02:39:29;98367.28;;;6.48;100.00
64713;BME280;51140;45.340;5.980;2024-02-16T02:41:54;98366.50;;;6.48;100.00
64713;BME280;51140;45.340;5.980;2024-02-16T02:44:20;98366.25;;;6.49;100.00
64713;BME280;51140;45.340;5.980;2024-02-16T02:46:45;98371.16;;;6.57;100.00
64713;BME280;51140;45.340;5.980;2024-02-16T02:49:10;98368.88;;;6.61;100.00
64713;BME280;51140;45.340;5.980;2024-02-16T02:51:36;98366.66;;;6.69;100.00
64713;BME280;51140;45.340;5.980;2024-02-16T02:54:01;98361.59;;;6.68;100.00
64713;BME280;51140;45.340;5.980;2024-02-16T02:56:26;98364.97;;;6.63;100.00
64713;BME280;51140;45.340;5.980;2024-02-16T02:58:52;98365.06;;;6.57;99.71
64713;BME280;51140;45.340;5.980;2024-02-16T03:01:18;98359.97;;;6.39;100.00
64713;BME280;51140;45.340;5.980;2024-02-16T03:03:45;98362.59;;;6.39;100.00
64713;BME280;51140;45.340;5.980;2024-02-16T03:06:12;98372.44;;;6.43;100.00
64713;BME280;51140;45.340;5.980;2024-02-16T03:08:37;98366.59;;;6.41;100.00
64713;BME280;51140;45.340;5.980;2024-02-16T03:11:02;98369.78;;;6.55;100.00
64713;BME280;51140;45.340;5.980;2024-02-16T03:13:29;98366.44;;;6.59;100.00
64713;BME280;51140;45.340;5.980;2024-02-16T03:15:54;98369.56;;;6.56;100.00
64713;BME280;51140;45.340;5.980;2024-02-16T03:18:20;98378.59;;;6.60;100.00
64713;BME280;51140;45.340;5.980;2024-02-16T03:20:45;98374.59;;;6.58;100.00
64713;BME280;51140;45.340;5.980;2024-02-16T03:23:14;98372.47;;;6.31;99.97
64713;BME280;51140;45.340;5.980;2024-02-16T03:25:39;98365.34;;;6.32;100.00
64713;BME280;51140;45.340;5.980;2024-02-16T03:28:05;98373.81;;;6.46;100.00
64713;BME280;51140;45.340;5.980;2024-02-16T03:30:31;98368.91;;;6.38;99.77
64713;BME280;51140;45.340;5.980;2024-02-16T03:32:56;98378.19;;;6.28;99.28
64713;BME280;51140;45.340;5.980;2024-02-16T03:35:22;98378.44;;;6.15;98.82
64713;BME280;51140;45.340;5.980;2024-02-16T03:37:47;98382.34;;;6.01;99.56
64713;BME280;51140;45.340;5.980;2024-02-16T03:40:12;98383.47;;;6.05;100.00
64713;BME280;51140;45.340;5.980;2024-02-16T03:42:39;98381.28;;;6.02;100.00
64713;BME280;51140;45.340;5.980;2024-02-16T03:45:06;98378.78;;;5.96;100.00
64713;BME280;51140;45.340;5.980;2024-02-16T03:47:32;98371.91;;;6.06;100.00
64713;BME280;51140;45.340;5.980;2024-02-16T03:49:57;98380.06;;;6.16;100.00
64713;BME280;51140;45.340;5.980;2024-02-16T03:52:22;98377.06;;;6.01;100.00
64713;BME280;51140;45.340;5.980;2024-02-16T03:54:48;98384.72;;;6.03;100.00
64713;BME280;51140;45.340;5.980;2024-02-16T03:57:15;98382.09;;;5.91;100.00
64713;BME280;51140;45.340;5.980;2024-02-16T03:59:42;98381.63;;;5.94;100.00
64713;BME280;51140;45.340;5.980;2024-02-16T04:02:09;98388.50;;;5.95;100.00
64713;BME280;51140;45.340;5.980;2024-02-16T04:04:35;98394.69;;;6.01;100.00
64713;BME280;51140;45.340;5.980;2024-02-16T04:07:00;98386.91;;;5.94;100.00
64713;BME280;51140;45.340;5.980;2024-02-16T04:09:26;98392.88;;;5.90;100.00
64713;BME280;51140;45.340;5.980;2024-02-16T04:11:51;98388.13;;;5.80;100.00
64713;BME280;51140;45.340;5.980;2024-02-16T04:14:16;98393.16;;;5.70;100.00
64713;BME280;51140;45.340;5.980;2024-02-16T04:16:43;98397.06;;;5.79;100.00
64713;BME280;51140;45.340;5.980;2024-02-16T04:19:09;98399.97;;;5.89;100.00
64713;BME280;51140;45.340;5.980;2024-02-16T04:21:34;98398.44;;;5.82;100.00
64713;BME280;51140;45.340;5.980;2024-02-16T04:23:59;98406.06;;;6.01;100.00
64713;BME280;51140;45.340;5.980;2024-02-16T04:26:25;98402.16;;;6.04;100.00
64713;BME280;51140;45.340;5.980;2024-02-16T04:28:50;98411.88;;;6.03;100.00
64713;BME280;51140;45.340;5.980;2024-02-16T04:31:15;98413.94;;;6.01;100.00
64713;BME280;51140;45.340;5.980;2024-02-16T04:33:41;98409.50;;;6.13;100.00
64713;BME280;51140;45.340;5.980;2024-02-16T04:36:07;98410.63;;;6.06;100.00
64713;BME280;51140;45.340;5.980;2024-02-16T04:38:32;98415.22;;;6.10;100.00
64713;BME280;51140;45.340;5.980;2024-02-16T04:40:58;98420.34;;;6.05;100.00
64713;BME280;51140;45.340;5.980;2024-02-16T04:43:23;98420.81;;;6.02;100.00
64713;BME280;51140;45.340;5.980;2024-02-16T04:45:49;98414.63;;;5.97;100.00
64713;BME280;51140;45.340;5.980;2024-02-16T04:48:14;98417.38;;;5.90;100.00
64713;BME280;51140;45.340;5.980;2024-02-16T04:50:40;98426.31;;;5.89;100.00
64713;BME280;51140;45.340;5.980;2024-02-16T04:53:05;98424.03;;;6.04;100.00
64713;BME280;51140;45.340;5.980;2024-02-16T04:55:30;98423.44;;;6.14;100.00
64713;BME280;51140;45.340;5.980;2024-02-16T04:57:56;98431.03;;;5.99;100.00
64713;BME280;51140;45.340;5.980;2024-02-16T05:00:22;98425.31;;;6.13;100.00
64713;BME280;51140;45.340;5.980;2024-02-16T05:02:48;98427.59;;;6.21;100.00
64713;BME280;51140;45.340;5.980;2024-02-16T05:05:13;98419.78;;;6.15;100.00
64713;BME280;51140;45.340;5.980;2024-02-16T05:07:41;98424.16;;;6.09;100.00
64713;BME280;51140;45.340;5.980;2024-02-16T05:10:10;98426.34;;;6.12;100.00
64713;BME280;51140;45.340;5.980;2024-02-16T05:12:36;98434.31;;;5.94;100.00
64713;BME280;51140;45.340;5.980;2024-02-16T05:15:02;98434.31;;;5.94;100.00
64713;BME280;51140;45.340;5.980;2024-02-16T05:17:29;98434.31;;;5.94;100.00
64713;BME280;51140;45.340;5.980;2024-02-16T05:19:54;98439.41;;;6.07;100.00
64713;BME280;51140;45.340;5.980;2024-02-16T05:22:20;98433.88;;;5.97;100.00
64713;BME280;51140;45.340;5.980;2024-02-16T05:24:47;98436.50;;;5.97;100.00
64713;BME280;51140;45.340;5.980;2024-02-16T05:27:12;98431.13;;;5.92;100.00
64713;BME280;51140;45.340;5.980;2024-02-16T05:29:38;98435.69;;;5.97;100.00
64713;BME280;51140;45.340;5.980;2024-02-16T05:32:04;98443.84;;;5.95;100.00
64713;BME280;51140;45.340;5.980;2024-02-16T05:34:29;98440.94;;;5.85;100.00
64713;BME280;51140;45.340;5.980;2024-02-16T05:36:58;98440.78;;;5.80;100.00
64713;BME280;51140;45.340;5.980;2024-02-16T05:39:23;98439.50;;;5.71;100.00
64713;BME280;51140;45.340;5.980;2024-02-16T05:41:54;98442.63;;;5.79;100.00
64713;BME280;51140;45.340;5.980;2024-02-16T05:44:20;98442.81;;;5.96;100.00
64713;BME280;51140;45.340;5.980;2024-02-16T05:46:45;98441.31;;;6.00;100.00
64713;BME280;51140;45.340;5.980;2024-02-16T05:49:11;98439.72;;;6.11;100.00
64713;BME280;51140;45.340;5.980;2024-02-16T05:51:37;98440.78;;;6.21;100.00
64713;BME280;51140;45.340;5.980;2024-02-16T05:54:06;98437.31;;;6.09;100.00
64713;BME280;51140;45.340;5.980;2024-02-16T05:56:33;98441.44;;;6.05;100.00
64713;BME280;51140;45.340;5.980;2024-02-16T05:58:59;98435.50;;;6.10;100.00
64713;BME280;51140;45.340;5.980;2024-02-16T06:01:25;98439.63;;;6.17;100.00
64713;BME280;51140;45.340;5.980;2024-02-16T06:03:51;98436.88;;;6.36;100.00
64713;BME280;51140;45.340;5.980;2024-02-16T06:06:17;98441.91;;;6.49;99.48
64713;BME280;51140;45.340;5.980;2024-02-16T06:08:42;98441.25;;;6.42;99.79
64713;BME280;51140;45.340;5.980;2024-02-16T06:11:08;98440.31;;;6.24;100.00
64713;BME280;51140;45.340;5.980;2024-02-16T06:13:33;98444.09;;;6.17;100.00
64713;BME280;51140;45.340;5.980;2024-02-16T06:15:58;98440.88;;;6.26;100.00
64713;BME280;51140;45.340;5.980;2024-02-16T06:18:24;98442.72;;;6.38;99.99
64713;BME280;51140;45.340;5.980;2024-02-16T06:20:49;98450.19;;;6.41;99.44
64713;BME280;51140;45.340;5.980;2024-02-16T06:23:14;98448.69;;;6.45;99.81
64713;BME280;51140;45.340;5.980;2024-02-16T06:25:42;98450.63;;;6.38;100.00
64713;BME280;51140;45.340;5.980;2024-02-16T06:28:07;98456.34;;;6.23;100.00
64713;BME280;51140;45.340;5.980;2024-02-16T06:30:33;98460.97;;;6.27;100.00
64713;BME280;51140;45.340;5.980;2024-02-16T06:32:58;98456.13;;;6.13;100.00
64713;BME280;51140;45.340;5.980;2024-02-16T06:35:24;98463.22;;;6.12;100.00
64713;BME280;51140;45.340;5.980;2024-02-16T06:37:49;98474.44;;;6.19;100.00
64713;BME280;51140;45.340;5.980;2024-02-16T06:40:14;98474.94;;;6.16;100.00
64713;BME280;51140;45.340;5.980;2024-02-16T06:42:40;98479.16;;;6.17;100.00
64713;BME280;51140;45.340;5.980;2024-02-16T06:45:06;98477.44;;;6.11;100.00
64713;BME280;51140;45.340;5.980;2024-02-16T06:47:32;98482.34;;;6.19;100.00
64713;BME280;51140;45.340;5.980;2024-02-16T06:49:57;98496.81;;;6.17;100.00
64713;BME280;51140;45.340;5.980;2024-02-16T06:52:22;98486.59;;;6.09;100.00
64713;BME280;51140;45.340;5.980;2024-02-16T06:54:48;98489.22;;;6.09;100.00
64713;BME280;51140;45.340;5.980;2024-02-16T06:57:15;98493.69;;;6.08;100.00
64713;BME280;51140;45.340;5.980;2024-02-16T06:59:40;98504.13;;;6.15;100.00
64713;BME280;51140;45.340;5.980;2024-02-16T07:02:06;98502.66;;;6.19;100.00
64713;BME280;51140;45.340;5.980;2024-02-16T07:04:32;98501.63;;;6.20;100.00
64713;BME280;51140;45.340;5.980;2024-02-16T07:06:58;98512.97;;;6.20;100.00
64713;BME280;51140;45.340;5.980;2024-02-16T07:09:23;98510.91;;;6.22;100.00
64713;BME280;51140;45.340;5.980;2024-02-16T07:11:48;98515.50;;;6.15;100.00
64713;BME280;51140;45.340;5.980;2024-02-16T07:14:15;98520.75;;;6.15;100.00
64713;BME280;51140;45.340;5.980;2024-02-16T07:16:41;98530.84;;;6.18;100.00
64713;BME280;51140;45.340;5.980;2024-02-16T07:19:06;98528.34;;;6.23;100.00
64713;BME280;51140;45.340;5.980;2024-02-16T07:21:31;98529.06;;;6.30;100.00
64713;BME280;51140;45.340;5.980;2024-02-16T07:23:57;98528.13;;;6.37;100.00
64713;BME280;51140;45.340;5.980;2024-02-16T07:26:22;98539.25;;;6.39;100.00
64713;BME280;51140;45.340;5.980;2024-02-16T07:28:48;98538.47;;;6.50;100.00
64713;BME280;51140;45.340;5.980;2024-02-16T07:31:13;98531.91;;;6.41;100.00
64713;BME280;51140;45.340;5.980;2024-02-16T07:33:40;98535.72;;;6.45;100.00
64713;BME280;51140;45.340;5.980;2024-02-16T07:36:06;98539.72;;;6.47;100.00
64713;BME280;51140;45.340;5.980;2024-02-16T07:38:31;98557.03;;;6.55;100.00
64713;BME280;51140;45.340;5.980;2024-02-16T07:40:56;98550.84;;;6.61;100.00
64713;BME280;51140;45.340;5.980;2024-02-16T07:43:22;98555.22;;;6.67;100.00
64713;BME280;51140;45.340;5.980;2024-02-16T07:45:49;98566.59;;;6.67;100.00
64713;BME280;51140;45.340;5.980;2024-02-16T07:48:15;98562.69;;;6.70;100.00
64713;BME280;51140;45.340;5.980;2024-02-16T07:50:40;98566.00;;;6.77;100.00
64713;BME280;51140;45.340;5.980;2024-02-16T07:53:06;98567.81;;;6.88;100.00
64713;BME280;51140;45.340;5.980;2024-02-16T07:55:32;98572.53;;;6.86;100.00
64713;BME280;51140;45.340;5.980;2024-02-16T07:57:57;98576.00;;;6.98;100.00
64713;BME280;51140;45.340;5.980;2024-02-16T08:00:23;98570.69;;;7.10;100.00
64713;BME280;51140;45.340;5.980;2024-02-16T08:02:48;98577.91;;;7.14;100.00
64713;BME280;51140;45.340;5.980;2024-02-16T08:05:14;98576.34;;;7.13;100.00
64713;BME280;51140;45.340;5.980;2024-02-16T08:07:40;98578.63;;;7.21;100.00
64713;BME280;51140;45.340;5.980;2024-02-16T08:10:09;98572.50;;;7.32;100.00
64713;BME280;51140;45.340;5.980;2024-02-16T08:12:35;98577.97;;;7.42;100.00
64713;BME280;51140;45.340;5.980;2024-02-16T08:15:04;98570.97;;;7.48;100.00
64713;BME280;51140;45.340;5.980;2024-02-16T08:17:35;98563.84;;;7.48;100.00
64713;BME280;51140;45.340;5.980;2024-02-16T08:20:01;98561.78;;;7.50;99.24
64713;BME280;51140;45.340;5.980;2024-02-16T08:22:26;98565.53;;;7.66;99.15
64713;BME280;51140;45.340;5.980;2024-02-16T08:24:52;98564.00;;;7.82;100.00
64713;BME280;51140;45.340;5.980;2024-02-16T08:27:17;98566.34;;;7.95;100.00
64713;BME280;51140;45.340;5.980;2024-02-16T08:29:43;98569.59;;;7.85;99.54
64713;BME280;51140;45.340;5.980;2024-02-16T08:32:09;98563.84;;;7.88;98.98
64713;BME280;51140;45.340;5.980;2024-02-16T08:34:35;98561.81;;;8.07;97.19
64713;BME280;51140;45.340;5.980;2024-02-16T08:37:03;98559.75;;;8.26;97.38
64713;BME280;51140;45.340;5.980;2024-02-16T08:39:29;98563.63;;;8.35;95.91
64713;BME280;51140;45.340;5.980;2024-02-16T08:41:56;98555.44;;;8.36;95.63
64713;BME280;51140;45.340;5.980;2024-02-16T08:44:21;98551.69;;;8.32;94.10
64713;BME280;51140;45.340;5.980;2024-02-16T08:46:46;98556.19;;;8.48;94.19
64713;BME280;51140;45.340;5.980;2024-02-16T08:49:14;98561.06;;;8.56;95.14
64713;BME280;51140;45.340;5.980;2024-02-16T08:51:39;98564.59;;;8.62;95.47
64713;BME280;51140;45.340;5.980;2024-02-16T08:54:04;98560.75;;;8.70;94.59
64713;BME280;51140;45.340;5.980;2024-02-16T08:56:30;98564.38;;;8.63;94.17
64713;BME280;51140;45.340;5.980;2024-02-16T08:58:56;98571.50;;;8.80;94.61
64713;BME280;51140;45.340;5.980;2024-02-16T09:01:34;98573.00;;;8.92;94.52
64713;BME280;51140;45.340;5.980;2024-02-16T09:03:59;98577.44;;;8.87;94.76
64713;BME280;51140;45.340;5.980;2024-02-16T09:06:25;98575.50;;;8.99;95.31
64713;BME280;51140;45.340;5.980;2024-02-16T09:08:51;98580.78;;;9.15;93.59
64713;BME280;51140;45.340;5.980;2024-02-16T09:11:16;98581.38;;;9.23;93.42
64713;BME280;51140;45.340;5.980;2024-02-16T09:13:42;98581.53;;;9.33;94.06
64713;BME280;51140;45.340;5.980;2024-02-16T09:16:08;98592.28;;;9.26;93.77
64713;BME280;51140;45.340;5.980;2024-02-16T09:18:33;98587.47;;;9.23;94.12
64713;BME280;51140;45.340;5.980;2024-02-16T09:20:59;98596.16;;;9.18;93.08
64713;BME280;51140;45.340;5.980;2024-02-16T09:23:26;98596.41;;;9.17;93.41
64713;BME280;51140;45.340;5.980;2024-02-16T09:25:51;98596.69;;;9.37;92.14
64713;BME280;51140;45.340;5.980;2024-02-16T09:28:17;98606.41;;;9.32;92.06
64713;BME280;51140;45.340;5.980;2024-02-16T09:30:45;98602.53;;;9.39;91.42
64713;BME280;51140;45.340;5.980;2024-02-16T09:33:11;98606.34;;;9.48;92.26
64713;BME280;51140;45.340;5.980;2024-02-16T09:35:37;98607.97;;;9.49;91.38
64713;BME280;51140;45.340;5.980;2024-02-16T09:38:03;98610.56;;;9.66;91.84
64713;BME280;51140;45.340;5.980;2024-02-16T09:40:28;98615.50;;;9.57;91.95
64713;BME280;51140;45.340;5.980;2024-02-16T09:42:54;98611.44;;;9.71;89.62
64713;BME280;51140;45.340;5.980;2024-02-16T09:45:19;98610.94;;;9.74;90.48
64713;BME280;51140;45.340;5.980;2024-02-16T09:47:46;98609.78;;;9.87;90.45
64713;BME280;51140;45.340;5.980;2024-02-16T09:50:14;98615.66;;;9.94;90.65
64713;BME280;51140;45.340;5.980;2024-02-16T09:52:41;98619.31;;;10.10;88.92
64713;BME280;51140;45.340;5.980;2024-02-16T09:55:12;98623.53;;;10.11;89.21
64713;BME280;51140;45.340;5.980;2024-02-16T09:57:37;98625.00;;;10.18;88.58
64713;BME280;51140;45.340;5.980;2024-02-16T10:00:03;98628.47;;;10.02;88.99
64713;BME280;51140;45.340;5.980;2024-02-16T10:02:42;98624.25;;;10.23;87.77
64713;BME280;51140;45.340;5.980;2024-02-16T10:05:15;98625.41;;;10.32;86.46
64713;BME280;51140;45.340;5.980;2024-02-16T10:07:42;98625.66;;;10.09;88.70
64713;BME280;51140;45.340;5.980;2024-02-16T10:10:28;98626.84;;;10.18;88.26
64713;BME280;51140;45.340;5.980;2024-02-16T10:13:05;98634.97;;;10.33;87.28
64713;BME280;51140;45.340;5.980;2024-02-16T10:15:31;98644.56;;;10.39;87.71
64713;BME280;51140;45.340;5.980;2024-02-16T10:18:05;98642.03;;;10.49;86.42
64713;BME280;51140;45.340;5.980;2024-02-16T10:20:31;98645.19;;;10.46;87.17
64713;BME280;51140;45.340;5.980;2024-02-16T10:25:30;98652.06;;;9.99;86.84
64713;BME280;51140;45.340;5.980;2024-02-16T10:27:57;98650.13;;;10.38;86.73
64713;BME280;51140;45.340;5.980;2024-02-16T10:30:26;98642.84;;;10.28;85.94
64713;BME280;51140;45.340;5.980;2024-02-16T10:32:54;98647.22;;;10.39;88.27
64713;BME280;51140;45.340;5.980;2024-02-16T10:35:21;98647.88;;;10.51;85.77
64713;BME280;51140;45.340;5.980;2024-02-16T10:37:47;98647.75;;;10.68;86.76
64713;BME280;51140;45.340;5.980;2024-02-16T10:40:13;98648.25;;;10.65;87.02
64713;BME280;51140;45.340;5.980;2024-02-16T10:42:45;98645.53;;;10.55;87.12
64713;BME280;51140;45.340;5.980;2024-02-16T10:45:12;98639.63;;;10.79;84.51
64713;BME280;51140;45.340;5.980;2024-02-16T10:47:38;98643.97;;;10.90;85.79
64713;BME280;51140;45.340;5.980;2024-02-16T10:50:04;98648.09;;;11.08;83.85
64713;BME280;51140;45.340;5.980;2024-02-16T10:52:31;98642.03;;;11.13;81.87
64713;BME280;51140;45.340;5.980;2024-02-16T10:54:57;98649.00;;;11.24;84.95
64713;BME280;51140;45.340;5.980;2024-02-16T10:57:23;98641.94;;;11.44;85.14
64713;BME280;51140;45.340;5.980;2024-02-16T10:59:52;98641.72;;;11.51;84.40
64713;BME280;51140;45.340;5.980;2024-02-16T11:02:19;98638.22;;;11.45;83.91
64713;BME280;51140;45.340;5.980;2024-02-16T11:04:46;98640.69;;;11.57;83.67
64713;BME280;51140;45.340;5.980;2024-02-16T11:07:15;98637.63;;;11.75;81.15
64713;BME280;51140;45.340;5.980;2024-02-16T11:09:41;98631.31;;;11.91;79.85
64713;BME280;51140;45.340;5.980;2024-02-16T11:12:07;98622.81;;;11.94;77.42
64713;BME280;51140;45.340;5.980;2024-02-16T11:14:47;98627.09;;;12.05;78.15
64713;BME280;51140;45.340;5.980;2024-02-16T11:17:21;98622.59;;;12.16;78.38
64713;BME280;51140;45.340;5.980;2024-02-16T11:19:48;98619.94;;;12.11;78.24
64713;BME280;51140;45.340;5.980;2024-02-16T11:22:17;98609.00;;;12.02;75.93
64713;BME280;51140;45.340;5.980;2024-02-16T11:24:45;98611.69;;;12.18;75.46
64713;BME280;51140;45.340;5.980;2024-02-16T11:27:12;98607.16;;;12.13;74.13
64713;BME280;51140;45.340;5.980;2024-02-16T11:29:38;98601.06;;;12.13;74.47
64713;BME280;51140;45.340;5.980;2024-02-16T11:32:07;98598.94;;;12.25;77.12
64713;BME280;51140;45.340;5.980;2024-02-16T11:34:34;98601.59;;;12.20;79.15
64713;BME280;51140;45.340;5.980;2024-02-16T11:37:01;98598.69;;;12.36;78.15
64713;BME280;51140;45.340;5.980;2024-02-16T11:39:28;98590.69;;;12.41;76.80
64713;BME280;51140;45.340;5.980;2024-02-16T11:44:27;98586.47;;;12.55;74.30
64713;BME280;51140;45.340;5.980;2024-02-16T11:46:54;98586.47;;;12.55;75.35
64713;BME280;51140;45.340;5.980;2024-02-16T11:49:19;98585.66;;;12.60;73.89
64713;BME280;51140;45.340;5.980;2024-02-16T11:51:45;98584.84;;;12.64;75.57
64713;BME280;51140;45.340;5.980;2024-02-16T11:54:10;98580.06;;;12.77;76.03
64713;BME280;51140;45.340;5.980;2024-02-16T11:56:37;98585.13;;;12.73;75.92
64713;BME280;51140;45.340;5.980;2024-02-16T11:59:05;98587.28;;;12.81;75.32
64713;BME280;51140;45.340;5.980;2024-02-16T12:01:31;98575.53;;;12.97;75.71
64713;BME280;51140;45.340;5.980;2024-02-16T12:03:58;98577.41;;;13.12;75.27
64713;BME280;51140;45.340;5.980;2024-02-16T12:06:23;98567.81;;;13.01;73.93
64713;BME280;51140;45.340;5.980;2024-02-16T12:08:50;98568.84;;;13.00;71.86
64713;BME280;51140;45.340;5.980;2024-02-16T12:11:17;98566.44;;;13.18;75.20
64713;BME280;51140;45.340;5.980;2024-02-16T12:13:44;98564.84;;;13.23;74.12
64713;BME280;51140;45.340;5.980;2024-02-16T12:16:10;98561.63;;;13.31;74.88
64713;BME280;51140;45.340;5.980;2024-02-16T12:18:35;98561.66;;;13.21;72.00
64713;BME280;51140;45.340;5.980;2024-02-16T12:23:27;98554.75;;;12.94;70.02
64713;BME280;51140;45.340;5.980;2024-02-16T12:25:53;98561.66;;;13.10;73.31
64713;BME280;51140;45.340;5.980;2024-02-16T12:28:23;98560.03;;;13.25;71.79
64713;BME280;51140;45.340;5.980;2024-02-16T12:30:49;98565.34;;;13.35;72.62
64713;BME280;51140;45.340;5.980;2024-02-16T12:33:15;98558.13;;;13.40;73.28
64713;BME280;51140;45.340;5.980;2024-02-16T12:35:40;98565.38;;;13.30;68.20
64713;BME280;51140;45.340;5.980;2024-02-16T12:38:06;98542.94;;;13.41;70.69
64713;BME280;51140;45.340;5.980;2024-02-16T12:40:31;98546.63;;;13.45;68.25
64713;BME280;51140;45.340;5.980;2024-02-16T12:42:56;98546.91;;;13.48;72.83
64713;BME280;51140;45.340;5.980;2024-02-16T12:45:22;98545.78;;;13.59;70.79
64713;BME280;51140;45.340;5.980;2024-02-16T12:47:47;98544.69;;;13.65;71.27
64713;BME280;51140;45.340;5.980;2024-02-16T12:50:12;98574.88;;;13.61;67.41
64713;BME280;51140;45.340;5.980;2024-02-16T12:52:38;98547.88;;;13.67;67.74
64713;BME280;51140;45.340;5.980;2024-02-16T12:55:07;98543.03;;;13.80;69.73
64713;BME280;51140;45.340;5.980;2024-02-16T12:57:34;98535.31;;;13.73;69.04
64713;BME280;51140;45.340;5.980;2024-02-16T13:00:00;98537.94;;;13.83;67.35
64713;BME280;51140;45.340;5.980;2024-02-16T13:02:25;98526.03;;;13.65;68.95
64713;BME280;51140;45.340;5.980;2024-02-16T13:04:50;98530.53;;;13.70;67.62
64713;BME280;51140;45.340;5.980;2024-02-16T13:07:16;98527.31;;;13.78;67.49